Time;durP1;ratioP1;P1;durP2;ratioP2;P2;SDS_P1;SDS_P2;PMS_P1;PMS_P2;Temp;Humidity;BMP_temperature;BMP_pressure;BME280_temperature;BME280_humidity;BME280_pressure;Samples;Min_cycle;Max_cycle;Signal;HPM_P1;HPM_P2
2023/07/03 00:00:12;;;;;;;15.70;9.32;;;20.20;99.90;;;;;;5072835;28;20090;-79
2023/07/03 00:02:41;;;;;;;14.52;9.48;;;20.30;99.90;;;;;;5072557;28;20035;-82
2023/07/03 00:05:08;;;;;;;17.38;9.40;;;20.30;99.90;;;;;;5071287;28;20020;-81
2023/07/03 00:07:35;;;;;;;16.25;9.10;;;20.30;99.90;;;;;;5072512;28;20031;-78
2023/07/03 00:10:01;;;;;;;17.10;9.65;;;20.30;99.90;;;;;;5072437;28;20052;-82
2023/07/03 00:12:27;;;;;;;14.40;8.70;;;20.30;99.90;;;;;;5072532;28;20505;-77
2023/07/03 00:14:52;;;;;;;15.55;9.88;;;20.20;99.90;;;;;;5072956;28;20060;-82
2023/07/03 00:17:18;;;;;;;16.33;9.45;;;20.10;99.90;;;;;;5073804;28;20555;-81
2023/07/03 00:19:44;;;;;;;17.13;10.23;;;20.20;99.90;;;;;;5072578;28;20029;-81
2023/07/03 00:22:10;;;;;;;17.67;10.55;;;20.10;99.90;;;;;;5072636;28;20037;-81
2023/07/03 00:24:36;;;;;;;15.55;9.02;;;20.10;99.90;;;;;;5076050;28;20181;-79
2023/07/03 00:27:01;;;;;;;17.20;10.45;;;20.10;99.90;;;;;;5076271;28;20462;-80
2023/07/03 00:29:32;;;;;;;19.58;10.13;;;20.10;99.90;;;;;;5058303;28;20056;-81
2023/07/03 00:31:58;;;;;;;14.40;9.35;;;20.00;99.90;;;;;;5075771;28;20055;-81
2023/07/03 00:34:26;;;;;;;18.05;10.35;;;20.00;99.90;;;;;;5057644;28;20195;-78
2023/07/03 00:36:53;;;;;;;18.10;10.68;;;20.00;99.90;;;;;;5075276;28;20024;-80
2023/07/03 00:39:20;;;;;;;17.00;10.27;;;20.00;99.90;;;;;;5057279;28;20059;-82
2023/07/03 00:41:46;;;;;;;18.30;10.75;;;20.00;99.90;;;;;;5075202;28;20479;-81
2023/07/03 00:44:19;;;;;;;16.13;10.05;;;20.00;99.90;;;;;;5057758;28;20074;-79
2023/07/03 00:46:48;;;;;;;18.23;9.98;;;19.90;99.90;;;;;;5075902;28;20025;-78
2023/07/03 00:49:15;;;;;;;19.65;10.88;;;19.90;99.90;;;;;;5075694;28;20466;-79
2023/07/03 00:51:44;;;;;;;18.92;10.68;;;19.90;99.90;;;;;;5057961;28;20036;-80
2023/07/03 00:54:10;;;;;;;14.98;10.68;;;19.90;99.90;;;;;;5067850;28;20082;-75
2023/07/03 00:56:36;;;;;;;22.20;11.73;;;19.80;99.90;;;;;;5057085;28;20033;-79
2023/07/03 00:59:03;;;;;;;17.02;10.63;;;19.80;99.90;;;;;;5053283;28;20025;-81
2023/07/03 01:01:48;;;;;;;18.45;10.70;;;19.70;99.90;;;;;;5054763;28;20021;-80
2023/07/03 01:04:26;;;;;;;18.30;10.88;;;19.60;99.90;;;;;;5058593;28;20040;-75
2023/07/03 01:06:57;;;;;;;15.30;10.35;;;19.60;99.90;;;;;;5057499;28;20025;-76
2023/07/03 01:09:32;;;;;;;16.17;9.77;;;19.70;99.90;;;;;;5054207;28;20044;-74
2023/07/03 01:11:58;;;;;;;15.98;10.10;;;19.60;99.90;;;;;;5036541;28;20068;-81
2023/07/03 01:14:24;;;;;;;18.42;11.02;;;19.60;99.90;;;;;;5052472;28;20075;-81
2023/07/03 01:16:52;;;;;;;15.30;9.27;;;19.50;99.90;;;;;;5056208;28;20029;-78
2023/07/03 01:19:31;;;;;;;16.92;10.55;;;19.50;99.90;;;;;;5035920;28;20028;-80
2023/07/03 01:21:59;;;;;;;16.08;10.40;;;19.50;99.90;;;;;;5053546;28;20021;-80
2023/07/03 01:24:30;;;;;;;17.15;11.77;;;19.50;99.90;;;;;;5053313;28;20017;-81
2023/07/03 01:26:56;;;;;;;16.48;10.52;;;19.40;99.90;;;;;;5055605;28;20467;-75
2023/07/03 01:29:23;;;;;;;18.52;10.98;;;19.40;99.90;;;;;;5039452;28;20021;-75
2023/07/03 01:31:50;;;;;;;18.23;11.07;;;19.40;99.90;;;;;;5057546;28;20076;-78
2023/07/03 01:34:17;;;;;;;16.60;10.13;;;19.30;99.90;;;;;;5056321;28;20047;-82
2023/07/03 01:36:43;;;;;;;17.13;11.45;;;19.30;99.90;;;;;;5146249;22;20051;-81
2023/07/03 01:39:10;;;;;;;20.55;11.70;;;19.30;99.90;;;;;;5116771;28;20048;-76
2023/07/03 01:41:37;;;;;;;24.40;13.32;;;19.30;99.90;;;;;;5120271;27;20103;-77
2023/07/03 01:44:03;;;;;;;21.50;12.30;;;19.30;99.90;;;;;;5097114;27;20396;-82
2023/07/03 01:46:29;;;;;;;16.38;10.82;;;19.30;99.90;;;;;;5096397;28;20461;-82
2023/07/03 01:48:56;;;;;;;17.83;10.30;;;19.20;99.90;;;;;;5114766;28;20027;-81
2023/07/03 01:51:37;;;;;;;17.13;11.65;;;19.20;99.90;;;;;;5114720;28;20387;-81
2023/07/03 01:54:16;;;;;;;17.17;11.23;;;19.20;99.90;;;;;;5096196;28;20434;-81
2023/07/03 01:56:50;;;;;;;19.27;11.13;;;19.10;99.90;;;;;;5114368;28;20093;-81
2023/07/03 01:59:20;;;;;;;18.85;11.27;;;19.20;99.90;;;;;;5115765;28;20027;-78
2023/07/03 02:02:01;;;;;;;18.17;11.05;;;19.10;99.90;;;;;;5099428;28;20093;-77
2023/07/03 02:04:35;;;;;;;20.13;9.75;;;19.10;99.90;;;;;;5099416;28;20076;-77
2023/07/03 02:07:03;;;;;;;18.95;11.32;;;19.10;99.90;;;;;;5116307;28;20020;-78
2023/07/03 02:09:30;;;;;;;16.10;10.80;;;19.20;99.90;;;;;;5098270;28;20036;-76
2023/07/03 02:11:58;;;;;;;17.88;9.95;;;19.10;99.90;;;;;;5082805;28;20473;-75
2023/07/03 02:14:25;;;;;;;18.20;10.80;;;19.10;99.90;;;;;;5099251;28;20036;-75
2023/07/03 02:16:52;;;;;;;16.42;11.02;;;19.10;99.90;;;;;;5099520;28;20027;-75
2023/07/03 02:19:31;;;;;;;18.42;10.98;;;19.10;99.90;;;;;;5114211;28;20076;-81
2023/07/03 02:21:58;;;;;;;15.63;10.13;;;19.20;99.90;;;;;;5113243;28;20381;-76
2023/07/03 02:24:27;;;;;;;16.48;9.82;;;19.20;99.90;;;;;;5118054;28;20421;-75
2023/07/03 02:26:53;;;;;;;16.08;10.60;;;19.20;99.90;;;;;;5100159;28;20062;-74
2023/07/03 02:29:20;;;;;;;17.33;11.35;;;19.30;99.90;;;;;;5119769;27;20381;-82
2023/07/03 02:31:45;;;;;;;16.27;10.32;;;19.30;99.90;;;;;;5102466;28;20038;-78
2023/07/03 02:34:12;;;;;;;19.13;10.80;;;19.30;99.90;;;;;;5115346;28;20035;-77
2023/07/03 02:36:39;;;;;;;17.45;10.38;;;19.10;99.90;;;;;;5113444;27;20059;-80
2023/07/03 02:39:09;;;;;;;19.88;9.98;;;19.10;99.90;;;;;;5119125;27;20030;-75
2023/07/03 02:41:35;;;;;;;17.70;10.30;;;19.10;99.90;;;;;;5134489;27;20037;-75
2023/07/03 02:44:01;;;;;;;16.60;9.65;;;19.10;99.90;;;;;;5115863;27;20114;-79
2023/07/03 02:46:29;;;;;;;16.35;9.60;;;19.10;99.90;;;;;;5114533;27;20213;-82
2023/07/03 02:48:56;;;;;;;16.00;9.65;;;19.10;99.90;;;;;;5116965;27;20023;-75
2023/07/03 02:51:22;;;;;;;17.88;10.35;;;19.00;99.90;;;;;;5115604;27;20030;-76
2023/07/03 02:53:50;;;;;;;18.38;10.13;;;19.00;99.90;;;;;;5116832;27;20045;-81
2023/07/03 02:56:16;;;;;;;15.73;9.65;;;19.00;99.90;;;;;;5115557;27;20015;-80
2023/07/03 02:58:44;;;;;;;16.33;9.80;;;19.00;99.90;;;;;;5134182;27;20019;-81
2023/07/03 03:01:15;;;;;;;15.77;8.57;;;19.00;99.90;;;;;;5115322;27;20020;-77
2023/07/03 03:03:44;;;;;;;14.93;9.30;;;19.00;99.90;;;;;;5115371;27;20477;-76
2023/07/03 03:06:11;;;;;;;14.45;8.68;;;19.00;99.90;;;;;;5115475;27;20023;-75
2023/07/03 03:08:37;;;;;;;16.65;9.95;;;19.00;99.90;;;;;;5115543;27;20034;-77
2023/07/03 03:11:03;;;;;;;18.35;9.50;;;19.10;99.90;;;;;;5115485;27;20023;-80
2023/07/03 03:13:29;;;;;;;17.40;10.13;;;19.10;99.90;;;;;;5115637;27;20027;-77
2023/07/03 03:15:57;;;;;;;16.33;9.60;;;19.10;99.90;;;;;;5114558;27;20079;-77
2023/07/03 03:18:23;;;;;;;13.95;9.18;;;19.20;99.90;;;;;;5133946;27;20033;-77
2023/07/03 03:20:49;;;;;;;14.93;9.40;;;19.20;99.90;;;;;;5133829;27;20015;-77
2023/07/03 03:23:15;;;;;;;17.20;9.15;;;19.30;99.90;;;;;;5115679;27;20034;-80
2023/07/03 03:25:42;;;;;;;17.58;9.35;;;19.40;99.90;;;;;;5115003;27;20157;-81
2023/07/03 03:28:09;;;;;;;14.88;8.65;;;19.40;99.90;;;;;;5106576;27;20023;-75
2023/07/03 03:30:37;;;;;;;16.00;10.10;;;19.40;99.90;;;;;;5125615;27;20030;-75
2023/07/03 03:33:03;;;;;;;19.05;9.02;;;19.40;99.90;;;;;;5138040;27;20064;-79
2023/07/03 03:35:30;;;;;;;15.50;10.13;;;19.40;99.90;;;;;;5118968;27;20110;-75
2023/07/03 03:37:56;;;;;;;13.52;7.78;;;19.60;99.90;;;;;;5117614;28;20095;-76
2023/07/03 03:40:22;;;;;;;19.13;8.93;;;19.60;99.90;;;;;;5113099;28;20035;-80
2023/07/03 03:42:47;;;;;;;16.88;8.90;;;19.70;99.90;;;;;;5100809;28;20031;-79
2023/07/03 03:45:15;;;;;;;14.23;8.85;;;19.60;99.90;;;;;;5118171;27;20053;-75
2023/07/03 03:47:40;;;;;;;14.95;9.05;;;19.70;99.90;;;;;;5112712;28;20361;-79
2023/07/03 03:50:08;;;;;;;14.63;8.23;;;19.60;99.90;;;;;;5115462;28;20023;-80
2023/07/03 03:52:38;;;;;;;13.95;8.50;;;19.60;99.90;;;;;;5114566;28;20526;-79
2023/07/03 03:55:04;;;;;;;15.52;8.15;;;19.80;99.90;;;;;;5120459;28;20097;-81
2023/07/03 03:57:30;;;;;;;14.55;8.38;;;19.80;99.90;;;;;;5124564;28;20422;-83
2023/07/03 03:59:56;;;;;;;15.20;8.63;;;19.80;99.90;;;;;;5104225;27;20019;-78
2023/07/03 04:02:22;;;;;;;16.83;8.05;;;19.90;99.90;;;;;;5094488;28;20054;-75
2023/07/03 04:04:48;;;;;;;17.50;8.77;;;19.90;99.90;;;;;;5117225;27;20042;-79
2023/07/03 04:07:13;;;;;;;15.55;8.00;;;20.00;99.90;;;;;;5149977;27;20023;-78
2023/07/03 04:09:39;;;;;;;12.07;8.02;;;20.10;99.90;;;;;;5157664;27;20508;-76
2023/07/03 04:12:05;;;;;;;13.48;7.22;;;20.10;99.90;;;;;;5146629;27;20216;-80
2023/07/03 04:14:31;;;;;;;13.88;7.97;;;20.20;99.90;;;;;;5130755;27;20457;-76
2023/07/03 04:16:58;;;;;;;15.82;8.45;;;20.20;99.90;;;;;;5149586;27;20018;-77
2023/07/03 04:19:25;;;;;;;24.00;8.60;;;20.20;99.90;;;;;;5152912;27;20023;-76
2023/07/03 04:21:51;;;;;;;13.48;8.13;;;20.20;99.90;;;;;;5149809;27;20022;-77
2023/07/03 04:24:18;;;;;;;14.32;7.85;;;20.30;99.90;;;;;;5144223;27;20019;-77
2023/07/03 04:26:44;;;;;;;15.30;8.38;;;20.30;99.90;;;;;;5123552;27;20023;-77
2023/07/03 04:29:09;;;;;;;13.20;7.95;;;20.40;99.90;;;;;;5156291;27;20483;-76
2023/07/03 04:31:36;;;;;;;13.95;8.93;;;20.50;99.90;;;;;;5157727;27;20049;-81
2023/07/03 04:34:01;;;;;;;17.83;8.80;;;20.50;99.90;;;;;;5138458;27;20375;-81
2023/07/03 04:36:27;;;;;;;16.05;8.73;;;20.60;99.90;;;;;;5149021;27;20058;-76
2023/07/03 04:38:57;;;;;;;15.55;9.48;;;20.70;99.90;;;;;;5158342;27;20056;-80
2023/07/03 04:41:27;;;;;;;15.43;9.27;;;20.80;99.90;;;;;;5155128;27;20031;-76
2023/07/03 04:43:56;;;;;;;22.13;9.93;;;20.80;99.90;;;;;;5130097;27;20030;-76
2023/07/03 04:46:25;;;;;;;15.80;9.35;;;20.80;99.90;;;;;;5157741;27;20102;-78
2023/07/03 04:48:52;;;;;;;14.68;9.18;;;20.80;99.90;;;;;;5157391;27;20468;-76
2023/07/03 04:51:19;;;;;;;24.90;9.88;;;20.90;99.90;;;;;;5148459;27;20031;-81
2023/07/03 04:53:45;;;;;;;17.75;9.38;;;21.00;99.90;;;;;;5116915;27;20090;-77
2023/07/03 04:56:11;;;;;;;20.90;8.98;;;21.10;99.90;;;;;;5146447;27;20126;-80
2023/07/03 04:58:38;;;;;;;17.65;9.55;;;21.20;99.90;;;;;;5138508;27;20168;-80
2023/07/03 05:01:04;;;;;;;19.02;10.10;;;21.20;99.90;;;;;;5137480;27;20019;-79
2023/07/03 05:03:31;;;;;;;16.52;10.02;;;21.20;99.90;;;;;;5116896;27;20019;-77
2023/07/03 05:05:58;;;;;;;15.90;8.98;;;21.20;99.90;;;;;;5144575;27;20034;-80
2023/07/03 05:08:24;;;;;;;17.50;9.50;;;21.30;99.90;;;;;;5148064;27;20019;-79
2023/07/03 05:10:51;;;;;;;16.02;9.80;;;21.30;99.90;;;;;;5123040;27;20016;-81
2023/07/03 05:13:17;;;;;;;12.77;8.07;;;21.30;99.90;;;;;;5138376;27;20023;-76
2023/07/03 05:15:42;;;;;;;15.77;9.63;;;21.40;99.90;;;;;;5137883;27;20095;-76
2023/07/03 05:18:08;;;;;;;17.40;9.23;;;21.40;99.90;;;;;;5152143;27;20031;-77
2023/07/03 05:20:34;;;;;;;20.27;9.52;;;21.60;99.90;;;;;;5144232;27;20443;-76
2023/07/03 05:23:00;;;;;;;14.13;8.80;;;21.60;99.90;;;;;;5133679;27;20099;-77
2023/07/03 05:25:26;;;;;;;21.38;9.88;;;21.80;99.90;;;;;;5136199;27;20452;-79
2023/07/03 05:27:51;;;;;;;20.40;9.90;;;21.80;99.90;;;;;;5136401;27;20020;-82
2023/07/03 05:30:17;;;;;;;19.48;9.65;;;22.10;99.90;;;;;;5136249;27;20023;-76
2023/07/03 05:32:43;;;;;;;17.42;9.70;;;22.20;99.90;;;;;;5136206;27;20019;-80
2023/07/03 05:35:10;;;;;;;19.05;9.95;;;22.20;99.90;;;;;;5135931;27;20031;-80
2023/07/03 05:37:36;;;;;;;19.80;9.93;;;22.30;99.90;;;;;;5118413;27;20051;-77
2023/07/03 05:40:05;;;;;;;14.95;8.73;;;22.40;99.90;;;;;;5115369;28;20362;-84
2023/07/03 05:42:31;;;;;;;18.23;9.18;;;22.30;99.90;;;;;;5107890;27;20380;-76
2023/07/03 05:44:57;;;;;;;14.43;7.50;;;22.40;99.90;;;;;;5118067;27;20349;-80
2023/07/03 05:47:22;;;;;;;15.73;7.28;;;22.60;99.90;;;;;;5112349;27;20019;-76
2023/07/03 05:49:49;;;;;;;14.00;7.75;;;22.80;99.90;;;;;;5124667;27;20041;-77
2023/07/03 05:52:15;;;;;;;16.45;7.43;;;22.90;99.90;;;;;;5115100;28;20023;-78
2023/07/03 05:54:41;;;;;;;13.43;7.20;;;23.00;99.90;;;;;;5125345;27;20035;-82
2023/07/03 05:57:09;;;;;;;10.75;6.00;;;23.10;99.90;;;;;;5097689;28;20461;-77
2023/07/03 05:59:37;;;;;;;11.13;6.03;;;23.30;99.90;;;;;;5097068;28;20051;-77
2023/07/03 06:02:05;;;;;;;9.23;4.88;;;23.50;99.90;;;;;;5117195;27;20046;-78
2023/07/03 06:04:33;;;;;;;10.60;5.53;;;23.50;99.90;;;;;;5104796;27;20075;-76
2023/07/03 06:07:02;;;;;;;14.32;5.97;;;23.60;99.90;;;;;;5113173;28;20032;-84
2023/07/03 06:09:28;;;;;;;13.23;6.15;;;24.00;99.90;;;;;;5083287;28;20032;-82
2023/07/03 06:11:58;;;;;;;13.13;5.95;;;23.80;99.90;;;;;;5121299;28;20484;-78
2023/07/03 06:14:24;;;;;;;7.70;4.38;;;24.00;99.90;;;;;;5115510;27;20046;-81
2023/07/03 06:16:52;;;;;;;12.70;5.55;;;24.10;99.90;;;;;;5123010;28;20036;-82
2023/07/03 06:19:19;;;;;;;10.15;5.45;;;24.50;99.90;;;;;;5111755;27;20016;-77
2023/07/03 06:21:45;;;;;;;11.30;5.05;;;24.60;99.90;;;;;;5110247;28;20029;-78
2023/07/03 06:24:12;;;;;;;10.82;5.32;;;24.30;99.90;;;;;;5123163;28;20026;-82
2023/07/03 06:26:39;;;;;;;7.55;4.57;;;24.30;99.90;;;;;;5127795;27;20032;-76
2023/07/03 06:29:07;;;;;;;7.75;4.53;;;24.20;99.40;;;;;;5101618;27;20032;-83
2023/07/03 06:31:33;;;;;;;6.82;4.78;;;24.60;99.30;;;;;;5103873;27;20039;-75
2023/07/03 06:33:59;;;;;;;11.27;6.03;;;24.80;99.40;;;;;;5093549;28;20019;-76
2023/07/03 06:36:25;;;;;;;9.25;4.95;;;25.00;99.30;;;;;;5112031;28;20511;-75
2023/07/03 06:38:52;;;;;;;12.13;5.13;;;25.40;99.20;;;;;;5115686;27;20026;-76
2023/07/03 06:41:19;;;;;;;7.30;4.45;;;25.30;97.90;;;;;;5108600;27;20059;-74
2023/07/03 06:43:45;;;;;;;9.43;4.65;;;25.50;97.80;;;;;;5132402;27;20472;-74
2023/07/03 06:46:11;;;;;;;8.20;4.40;;;25.60;98.90;;;;;;5138311;27;20033;-76
2023/07/03 06:48:37;;;;;;;10.50;5.55;;;25.60;97.60;;;;;;5131311;27;20059;-76
2023/07/03 06:51:06;;;;;;;10.05;4.93;;;25.80;98.20;;;;;;5142058;27;20106;-75
2023/07/03 06:53:32;;;;;;;10.65;4.75;;;25.70;97.30;;;;;;5150529;27;20045;-80
2023/07/03 06:55:59;;;;;;;7.35;4.20;;;25.50;96.30;;;;;;5123939;27;20036;-76
2023/07/03 06:58:27;;;;;;;9.10;3.83;;;25.40;96.70;;;;;;5136807;27;20055;-79
2023/07/03 07:00:54;;;;;;;9.07;4.82;;;25.50;97.30;;;;;;5156990;27;20027;-79
2023/07/03 07:03:20;;;;;;;10.43;4.72;;;25.60;97.10;;;;;;5159097;27;20467;-77
2023/07/03 07:05:53;;;;;;;7.05;3.75;;;25.80;96.90;;;;;;5155690;27;20534;-78
2023/07/03 07:08:19;;;;;;;8.73;4.03;;;26.30;97.00;;;;;;5135721;27;20031;-76
2023/07/03 07:10:45;;;;;;;12.45;4.10;;;26.70;94.80;;;;;;5133542;27;20381;-80
2023/07/03 07:13:12;;;;;;;7.88;3.90;;;26.80;93.80;;;;;;5133563;27;20031;-75
2023/07/03 07:15:40;;;;;;;7.78;4.25;;;26.60;94.10;;;;;;5116090;27;20176;-80
2023/07/03 07:18:08;;;;;;;8.18;4.22;;;26.20;92.80;;;;;;5153071;27;20027;-76
2023/07/03 07:20:40;;;;;;;15.50;3.92;;;26.60;93.50;;;;;;5141551;27;20030;-77
2023/07/03 07:23:07;;;;;;;9.25;4.07;;;27.10;93.50;;;;;;5138711;27;20396;-78
2023/07/03 07:25:34;;;;;;;9.18;4.22;;;27.30;92.10;;;;;;5146752;27;20168;-82
2023/07/03 07:28:01;;;;;;;8.05;3.85;;;27.30;93.10;;;;;;5135680;27;20027;-79
2023/07/03 07:30:27;;;;;;;7.40;3.67;;;27.40;92.20;;;;;;5155045;27;20030;-75
2023/07/03 07:32:52;;;;;;;6.50;3.85;;;27.50;91.70;;;;;;5136993;27;20023;-79
2023/07/03 07:35:19;;;;;;;11.63;4.65;;;27.60;90.50;;;;;;5133645;27;20476;-78
2023/07/03 07:37:45;;;;;;;8.25;3.63;;;27.70;91.20;;;;;;5118959;27;20070;-78
2023/07/03 07:40:11;;;;;;;7.50;4.22;;;27.80;89.70;;;;;;5142317;27;20063;-79
2023/07/03 07:42:38;;;;;;;8.48;4.20;;;28.00;90.00;;;;;;5133828;27;20045;-77
2023/07/03 07:45:04;;;;;;;7.43;3.97;;;28.20;89.20;;;;;;5130303;28;20042;-77
2023/07/03 07:47:31;;;;;;;7.63;3.45;;;28.10;89.10;;;;;;5142187;27;20018;-77
2023/07/03 07:49:58;;;;;;;5.60;3.13;;;28.60;89.70;;;;;;5137855;27;20512;-78
2023/07/03 07:52:24;;;;;;;8.77;3.65;;;28.50;86.80;;;;;;5139918;27;20012;-77
2023/07/03 07:54:57;;;;;;;7.90;3.92;;;28.30;85.10;;;;;;5133161;27;20026;-77
2023/07/03 07:57:24;;;;;;;6.95;3.58;;;28.50;83.80;;;;;;5143219;27;20476;-76
2023/07/03 07:59:50;;;;;;;8.80;3.10;;;28.40;87.00;;;;;;5147385;27;20031;-82
2023/07/03 08:02:16;;;;;;;6.57;3.17;;;28.30;85.70;;;;;;5132925;27;20027;-83
2023/07/03 08:04:44;;;;;;;8.98;3.42;;;28.80;82.50;;;;;;5132649;27;20110;-78
2023/07/03 08:07:10;;;;;;;7.47;2.83;;;28.70;81.70;;;;;;5118281;28;20080;-78
2023/07/03 08:09:36;;;;;;;4.38;2.38;;;28.70;80.90;;;;;;5115023;28;20122;-77
2023/07/03 08:12:03;;;;;;;4.68;2.53;;;28.80;81.50;;;;;;5135065;27;20050;-77
2023/07/03 08:14:28;;;;;;;7.22;3.22;;;29.20;82.20;;;;;;5133716;28;20575;-82
2023/07/03 08:16:54;;;;;;;6.68;2.80;;;29.40;80.40;;;;;;5128449;27;20093;-77
2023/07/03 08:19:20;;;;;;;9.60;3.40;;;29.50;81.20;;;;;;5143512;27;20014;-82
2023/07/03 08:21:46;;;;;;;5.88;3.25;;;29.20;81.30;;;;;;5154695;27;20027;-77
2023/07/03 08:24:12;;;;;;;4.53;2.97;;;29.30;81.70;;;;;;5148645;27;20546;-82
2023/07/03 08:26:38;;;;;;;8.63;2.92;;;29.40;78.10;;;;;;5134131;28;20031;-77
2023/07/03 08:29:03;;;;;;;6.28;3.33;;;29.50;79.10;;;;;;5151461;27;20015;-79
2023/07/03 08:31:29;;;;;;;16.58;3.88;;;29.30;80.50;;;;;;5145886;27;20399;-82
2023/07/03 08:33:55;;;;;;;6.53;3.28;;;29.40;81.10;;;;;;5134957;27;20063;-81
2023/07/03 08:36:22;;;;;;;5.55;3.30;;;29.30;79.40;;;;;;5131637;27;20050;-80
2023/07/03 08:38:48;;;;;;;6.82;3.00;;;29.30;76.40;;;;;;5133345;27;20051;-79
2023/07/03 08:41:14;;;;;;;4.78;2.85;;;29.30;75.90;;;;;;5133516;27;20389;-77
2023/07/03 08:43:46;;;;;;;6.40;3.22;;;29.30;80.10;;;;;;5133757;27;20027;-77
2023/07/03 08:46:22;;;;;;;7.85;2.90;;;29.20;78.30;;;;;;5116725;27;20046;-76
2023/07/03 08:48:51;;;;;;;8.70;3.50;;;29.50;80.20;;;;;;5146661;27;20106;-78
2023/07/03 08:51:20;;;;;;;8.23;3.03;;;29.60;75.70;;;;;;5139253;27;20468;-76
2023/07/03 08:53:51;;;;;;;6.38;3.15;;;29.80;75.80;;;;;;5136127;27;20438;-80
2023/07/03 08:56:21;;;;;;;4.93;3.17;;;29.90;76.10;;;;;;5139566;27;20126;-79
2023/07/03 08:58:50;;;;;;;6.55;3.17;;;29.70;73.80;;;;;;5157581;27;20034;-83
2023/07/03 09:01:20;;;;;;;7.65;3.47;;;29.50;76.50;;;;;;5149026;27;20608;-77
2023/07/03 09:04:11;;;;;;;6.75;3.00;;;29.50;74.80;;;;;;5134646;27;20049;-77
2023/07/03 09:06:47;;;;;;;5.93;2.65;;;29.30;75.70;;;;;;5137567;27;20026;-77
2023/07/03 09:09:31;;;;;;;5.40;3.05;;;29.30;75.10;;;;;;5137012;27;20026;-81
2023/07/03 09:12:10;;;;;;;6.30;3.45;;;29.10;75.30;;;;;;5153897;27;20375;-82
2023/07/03 09:14:45;;;;;;;4.85;2.95;;;29.20;75.20;;;;;;5141869;27;20030;-82
2023/07/03 09:17:12;;;;;;;7.82;3.40;;;29.10;76.60;;;;;;5144392;27;20030;-81
2023/07/03 09:19:41;;;;;;;7.93;3.50;;;29.40;79.50;;;;;;5131109;27;20502;-81
2023/07/03 09:22:14;;;;;;;7.07;3.58;;;29.60;74.90;;;;;;5149936;27;20030;-82
2023/07/03 09:24:43;;;;;;;9.57;3.83;;;29.20;76.00;;;;;;5145399;27;20504;-77
2023/07/03 09:27:15;;;;;;;8.77;3.67;;;29.60;74.20;;;;;;5136434;27;20088;-77
2023/07/03 09:29:42;;;;;;;6.93;3.08;;;29.40;75.40;;;;;;5152464;27;20027;-81
2023/07/03 09:32:11;;;;;;;6.05;3.63;;;29.50;76.00;;;;;;5156675;27;20022;-83
2023/07/03 09:35:05;;;;;;;6.65;3.50;;;29.60;73.80;;;;;;5156872;27;20571;-80
2023/07/03 09:37:35;;;;;;;7.15;3.92;;;29.40;72.90;;;;;;5119474;27;20127;-76
2023/07/03 09:40:01;;;;;;;5.55;3.33;;;29.10;75.00;;;;;;5105350;28;20040;-81
2023/07/03 09:42:28;;;;;;;6.43;3.30;;;29.30;73.70;;;;;;5115629;28;20559;-80
2023/07/03 09:44:54;;;;;;;8.18;3.67;;;29.30;72.80;;;;;;5107530;27;20020;-77
2023/07/03 09:47:25;;;;;;;21.25;3.35;;;29.20;72.30;;;;;;5118349;27;20102;-81
2023/07/03 09:49:51;;;;;;;7.97;3.83;;;29.40;73.10;;;;;;5114882;28;20507;-76
2023/07/03 09:52:17;;;;;;;7.30;3.45;;;29.40;73.10;;;;;;5087685;28;20439;-77
2023/07/03 09:54:46;;;;;;;7.38;3.60;;;29.50;73.60;;;;;;5125021;27;20066;-81
2023/07/03 09:57:25;;;;;;;6.57;3.45;;;29.40;72.90;;;;;;5119969;27;20031;-76
2023/07/03 09:59:54;;;;;;;8.32;3.05;;;29.30;74.40;;;;;;5122089;27;20044;-78
2023/07/03 10:02:22;;;;;;;7.53;3.20;;;29.00;73.90;;;;;;5112883;27;20031;-76
2023/07/03 10:04:49;;;;;;;7.50;3.67;;;29.20;73.30;;;;;;5112929;27;20025;-77
2023/07/03 10:07:17;;;;;;;8.38;3.38;;;29.30;74.30;;;;;;5100058;27;20015;-78
2023/07/03 10:09:44;;;;;;;6.95;3.63;;;29.40;73.80;;;;;;5115806;27;20088;-85
2023/07/03 10:12:11;;;;;;;5.82;2.90;;;29.40;73.80;;;;;;5114847;27;20044;-77
2023/07/03 10:14:59;;;;;;;7.85;3.33;;;29.30;75.00;;;;;;5113646;27;20053;-77
2023/07/03 10:18:09;;;;;;;8.13;3.65;;;29.30;73.40;;;;;;5112825;28;20186;-77
2023/07/03 10:20:41;;;;;;;5.85;3.33;;;29.40;73.80;;;;;;5044947;28;20047;-81
2023/07/03 10:23:08;;;;;;;;;;;29.60;73.40;;;;;;5041883;28;20083;-82
2023/07/03 10:25:47;;;;;;;7.80;3.30;;;29.40;72.00;;;;;;5030187;28;19916;-75
2023/07/03 10:28:20;;;;;;;6.88;3.58;;;29.20;74.30;;;;;;5056280;28;20107;-75
2023/07/03 10:30:53;;;;;;;5.80;3.25;;;29.50;73.50;;;;;;5058148;28;20070;-85
2023/07/03 10:33:24;;;;;;;9.05;3.58;;;29.40;73.90;;;;;;5039397;28;20033;-79
2023/07/03 10:35:51;;;;;;;6.37;3.93;;;29.60;74.70;;;;;;5037375;28;20049;-75
2023/07/03 10:38:40;;;;;;;9.50;3.90;;;29.70;75.80;;;;;;5065067;28;20277;-81
2023/07/03 10:41:34;;;;;;;6.32;3.28;;;29.70;73.40;;;;;;5068066;28;20136;-83
2023/07/03 10:44:12;;;;;;;6.82;3.42;;;29.50;73.60;;;;;;5080059;28;20493;-75
2023/07/03 10:47:00;;;;;;;8.45;4.07;;;29.60;72.80;;;;;;5095736;28;20059;-75
2023/07/03 10:49:31;;;;;;;7.88;3.45;;;29.60;72.80;;;;;;5022592;28;20064;-78
2023/07/03 10:52:18;;;;;;;8.65;3.40;;;29.50;75.00;;;;;;5011833;28;20045;-75
2023/07/03 10:55:02;;;;;;;6.68;3.47;;;29.50;73.70;;;;;;5013547;28;20080;-76
2023/07/03 10:57:41;;;;;;;7.68;3.60;;;29.40;75.40;;;;;;5010222;28;20033;-74
2023/07/03 11:00:14;;;;;;;6.15;3.13;;;29.40;75.40;;;;;;5036804;28;20037;-79
2023/07/03 11:02:46;;;;;;;6.00;2.78;;;29.60;73.30;;;;;;5048135;28;20046;-84
2023/07/03 11:05:20;;;;;;;5.30;3.03;;;29.50;73.20;;;;;;5032989;28;20487;-84
2023/07/03 11:08:19;;;;;;;5.85;3.05;;;29.50;73.50;;;;;;5035293;28;20565;-75
2023/07/03 11:10:59;;;;;;;6.15;3.42;;;29.40;76.30;;;;;;5058266;28;20032;-81
2023/07/03 11:13:27;;;;;;;9.55;3.75;;;29.40;76.10;;;;;;5039777;28;20056;-77
2023/07/03 11:16:17;;;;;;;8.70;4.05;;;29.50;73.60;;;;;;5048178;28;20441;-84
2023/07/03 11:18:48;;;;;;;8.00;3.72;;;29.30;74.70;;;;;;5041683;28;20072;-83
2023/07/03 11:21:32;;;;;;;;;;;29.50;77.40;;;;;;5035800;28;20459;-78
2023/07/03 11:24:05;;;;;;;8.05;3.63;;;29.40;75.70;;;;;;5035622;28;20005;-79
2023/07/03 11:26:39;;;;;;;9.98;4.25;;;29.40;73.70;;;;;;5069295;27;20035;-75
2023/07/03 11:29:11;;;;;;;8.15;3.92;;;29.30;72.00;;;;;;5141016;27;20023;-74
2023/07/03 11:31:40;;;;;;;6.28;3.17;;;29.40;72.20;;;;;;5107316;27;20050;-73
2023/07/03 11:34:10;;;;;;;7.90;3.72;;;29.40;76.30;;;;;;5138484;27;20491;-80
2023/07/03 11:36:43;;;;;;;7.88;3.88;;;29.50;71.40;;;;;;5132512;27;20051;-76
2023/07/03 11:39:19;;;;;;;9.55;3.97;;;29.30;71.30;;;;;;5135362;27;20160;-74
2023/07/03 11:42:00;;;;;;;7.68;3.75;;;29.50;72.00;;;;;;5153397;27;20137;-74
2023/07/03 11:44:37;;;;;;;8.70;4.03;;;29.40;70.30;;;;;;5163708;27;20080;-73
2023/07/03 11:47:11;;;;;;;10.45;3.67;;;29.50;70.80;;;;;;5162194;27;20349;-78
2023/07/03 11:49:51;;;;;;;7.82;4.18;;;29.40;70.80;;;;;;5146660;27;20058;-79
2023/07/03 11:52:40;;;;;;;12.52;4.28;;;29.50;73.90;;;;;;5139870;27;20019;-73
2023/07/03 11:55:15;;;;;;;10.60;4.10;;;29.50;71.30;;;;;;5138845;27;20046;-75
2023/07/03 11:57:45;;;;;;;10.45;4.25;;;29.60;73.60;;;;;;5150762;27;20030;-85
2023/07/03 12:00:22;;;;;;;8.65;4.07;;;29.70;73.60;;;;;;5152610;27;20384;-73
2023/07/03 12:02:48;;;;;;;10.43;4.75;;;29.80;72.90;;;;;;5147431;28;20031;-78
2023/07/03 12:05:42;;;;;;;11.00;4.70;;;29.80;70.20;;;;;;5158683;27;20126;-85
2023/07/03 12:08:17;;;;;;;12.40;4.40;;;29.90;68.90;;;;;;5136582;28;20061;-85
2023/07/03 12:10:49;;;;;;;11.30;4.80;;;29.80;68.90;;;;;;5140709;28;20027;-77
2023/07/03 12:13:40;;;;;;;9.75;4.55;;;29.80;68.10;;;;;;5143762;27;20027;-86
2023/07/03 12:16:21;;;;;;;10.50;4.32;;;29.70;67.40;;;;;;5146320;27;20039;-74
2023/07/03 12:18:56;;;;;;;13.30;4.55;;;29.90;69.60;;;;;;5118365;28;20030;-80
2023/07/03 12:21:23;;;;;;;9.40;4.57;;;29.80;69.20;;;;;;5128385;27;20113;-79
2023/07/03 12:23:51;;;;;;;10.90;4.38;;;29.80;68.90;;;;;;5143627;27;20023;-83
2023/07/03 12:26:21;;;;;;;10.10;4.82;;;29.90;69.50;;;;;;5144501;27;20030;-83
2023/07/03 12:28:47;;;;;;;8.88;4.38;;;29.80;66.70;;;;;;5153003;27;20031;-75
2023/07/03 12:31:21;;;;;;;9.35;4.45;;;29.80;67.90;;;;;;5140001;27;20079;-83
2023/07/03 12:33:58;;;;;;;10.77;4.72;;;29.80;67.10;;;;;;5137312;27;20459;-74
2023/07/03 12:36:31;;;;;;;9.77;4.13;;;29.80;67.00;;;;;;5127916;27;20048;-74
2023/07/03 12:38:58;;;;;;;27.40;4.70;;;30.00;69.20;;;;;;5135031;27;20050;-74
2023/07/03 12:41:32;;;;;;;10.68;4.78;;;29.90;69.40;;;;;;5152876;27;20019;-82
2023/07/03 12:44:01;;;;;;;7.13;4.13;;;29.90;69.70;;;;;;5130154;27;20062;-74
2023/07/03 12:46:31;;;;;;;10.45;5.18;;;30.00;70.30;;;;;;5138241;27;20030;-83
2023/07/03 12:49:09;;;;;;;9.90;4.68;;;30.00;69.80;;;;;;5147506;27;20046;-82
2023/07/03 12:51:51;;;;;;;15.57;4.18;;;30.10;71.40;;;;;;5153129;27;20584;-74